createdAt,value
2018-09-13T00:08:06.503Z,14.30
2018-09-13T00:13:11.877Z,14.20
2018-09-13T00:18:16.934Z,14.10
2018-09-13T00:23:21.499Z,14.10
2018-09-13T00:28:26.046Z,14.10
2018-09-13T00:33:30.671Z,14.10
2018-09-13T00:38:35.520Z,14.10
2018-09-13T00:43:41.346Z,14.10
2018-09-13T00:48:46.342Z,14.00
2018-09-13T00:53:50.868Z,14.00
2018-09-13T00:58:55.729Z,13.90
2018-09-13T01:04:00.911Z,13.80
2018-09-13T01:09:08.001Z,13.80
2018-09-13T01:14:14.303Z,13.70
2018-09-13T01:19:22.844Z,13.70
2018-09-13T01:24:29.646Z,13.60
2018-09-13T01:29:35.516Z,13.70
2018-09-13T01:34:40.004Z,13.60
2018-09-13T01:39:44.767Z,13.60
2018-09-13T01:44:49.989Z,13.50
2018-09-13T01:49:56.674Z,13.50
2018-09-13T01:55:01.926Z,13.60
2018-09-13T02:00:07.601Z,13.60
2018-09-13T02:05:26.206Z,13.60
2018-09-13T02:16:13.247Z,13.60
2018-09-13T02:21:18.746Z,13.60
2018-09-13T02:26:24.703Z,13.60
2018-09-13T02:31:31.909Z,13.50
2018-09-13T02:42:06.085Z,13.50
2018-09-13T02:47:13.394Z,13.50
2018-09-13T02:52:18.657Z,13.60
2018-09-13T02:57:25.056Z,13.50
2018-09-13T03:02:32.558Z,13.50
2018-09-13T03:07:38.537Z,13.50
2018-09-13T03:12:43.803Z,13.50
2018-09-13T03:17:48.804Z,13.40
2018-09-13T03:22:53.496Z,13.30
2018-09-13T03:27:58.445Z,13.30
2018-09-13T03:33:03.344Z,13.20
2018-09-13T03:38:08.982Z,13.20
2018-09-13T03:43:13.622Z,13.30
2018-09-13T03:48:18.338Z,13.30
2018-09-13T03:53:29.099Z,13.30
2018-09-13T03:58:33.890Z,13.30
2018-09-13T04:03:38.679Z,13.30
2018-09-13T04:08:43.726Z,13.30
2018-09-13T04:13:48.626Z,13.40
2018-09-13T04:18:53.793Z,13.40
2018-09-13T04:23:58.603Z,13.40
2018-09-13T04:29:03.003Z,13.50
2018-09-13T04:34:07.785Z,13.50
2018-09-13T04:39:12.313Z,13.50
2018-09-13T04:44:16.863Z,13.50
2018-09-13T04:49:21.299Z,13.40
2018-09-13T04:54:25.942Z,13.40
2018-09-13T04:59:30.589Z,13.40
2018-09-13T05:04:35.168Z,13.50
2018-09-13T05:09:40.457Z,13.40
2018-09-13T05:14:45.078Z,13.40
2018-09-13T05:19:49.440Z,13.40
2018-09-13T05:24:54.047Z,13.40
2018-09-13T05:29:58.772Z,13.30
2018-09-13T05:35:03.317Z,13.30
2018-09-13T05:40:07.768Z,13.30
2018-09-13T05:45:12.212Z,13.40
2018-09-13T05:50:16.677Z,13.50
2018-09-13T05:55:21.177Z,13.40
2018-09-13T06:00:25.857Z,13.40
2018-09-13T06:05:30.398Z,13.50
2018-09-13T06:10:34.980Z,13.50
2018-09-13T06:15:39.478Z,13.50
2018-09-13T06:20:44.426Z,13.60
2018-09-13T06:25:48.868Z,13.60
2018-09-13T06:30:53.583Z,13.70
2018-09-13T06:35:58.402Z,13.60
2018-09-13T06:41:02.869Z,13.60
2018-09-13T06:46:07.433Z,13.60
2018-09-13T06:51:11.992Z,13.60
2018-09-13T06:56:17.189Z,13.60
2018-09-13T07:01:21.978Z,13.60
2018-09-13T07:06:26.625Z,13.60
2018-09-13T07:11:31.686Z,13.70
2018-09-13T07:16:38.131Z,13.70
2018-09-13T07:21:43.156Z,13.80
2018-09-13T07:26:47.595Z,13.80
2018-09-13T07:31:53.094Z,13.80
2018-09-13T07:36:57.506Z,13.90
2018-09-13T07:42:02.315Z,14.00
2018-09-13T07:47:07.117Z,14.10
2018-09-13T07:52:11.822Z,14.30
2018-09-13T07:57:16.221Z,14.40
2018-09-13T08:02:20.679Z,14.50
2018-09-13T08:07:25.095Z,14.40
2018-09-13T08:12:29.692Z,14.40
2018-09-13T08:17:34.490Z,14.50
2018-09-13T08:22:38.940Z,14.60
2018-09-13T08:27:43.319Z,14.60
2018-09-13T08:32:47.748Z,14.70
2018-09-13T08:37:52.614Z,14.90
2018-09-13T08:42:57.726Z,14.90
2018-09-13T08:48:02.362Z,15.00
2018-09-13T08:53:07.054Z,14.90
2018-09-13T08:58:11.569Z,14.90
2018-09-13T09:03:16.531Z,14.90
2018-09-13T09:08:21.040Z,15.00
2018-09-13T09:13:26.785Z,15.10
2018-09-13T09:18:32.041Z,15.40
2018-09-13T09:23:36.668Z,15.60
2018-09-13T09:28:41.131Z,16.00
2018-09-13T09:33:45.676Z,16.20
2018-09-13T09:38:50.466Z,16.20
2018-09-13T09:43:55.704Z,16.30
2018-09-13T09:49:00.411Z,16.30
2018-09-13T09:54:05.802Z,16.40
2018-09-13T09:59:10.803Z,16.30
2018-09-13T10:04:15.396Z,16.40
2018-09-13T10:09:19.803Z,16.40
2018-09-13T10:14:25.229Z,16.50
2018-09-13T10:19:35.427Z,16.70
2018-09-13T10:24:44.884Z,16.90
2018-09-13T10:29:54.359Z,16.90
2018-09-13T10:35:04.401Z,16.90
2018-09-13T10:40:14.204Z,17.00
2018-09-13T10:45:23.962Z,17.30
2018-09-13T10:50:31.434Z,17.50
2018-09-13T10:55:36.037Z,17.40
2018-09-13T11:00:40.607Z,17.20
2018-09-13T11:05:45.091Z,17.10
2018-09-13T11:10:50.422Z,17.40
2018-09-13T11:15:54.777Z,17.80
2018-09-13T11:20:59.267Z,18.10
2018-09-13T11:26:03.898Z,18.30
2018-09-13T11:31:08.434Z,18.20
2018-09-13T11:36:13.356Z,17.80
2018-09-13T11:41:17.757Z,17.70
2018-09-13T11:46:22.202Z,17.90
2018-09-13T11:51:26.527Z,17.90
2018-09-13T11:56:31.709Z,17.80
2018-09-13T12:01:36.152Z,17.80
2018-09-13T12:06:40.976Z,17.70
2018-09-13T12:11:45.231Z,17.50
2018-09-13T12:16:50.450Z,17.50
2018-09-13T12:21:55.068Z,17.50
2018-09-13T12:26:59.483Z,17.70
2018-09-13T12:32:04.116Z,17.90
2018-09-13T12:37:08.979Z,17.90
2018-09-13T12:42:13.507Z,18.00
2018-09-13T12:47:18.009Z,18.20
2018-09-13T12:52:22.426Z,18.70
2018-09-13T12:57:26.788Z,18.70
2018-09-13T13:02:31.292Z,18.90
2018-09-13T13:07:36.767Z,19.40
2018-09-13T13:12:41.352Z,19.90
2018-09-13T13:17:46.295Z,20.20
2018-09-13T13:22:50.814Z,20.20
2018-09-13T13:27:55.416Z,20.00
2018-09-13T13:32:59.989Z,19.80
2018-09-13T13:38:04.706Z,20.10
2018-09-13T13:43:09.091Z,20.60
2018-09-13T13:48:13.599Z,20.40
2018-09-13T13:53:18.207Z,19.90
2018-09-13T13:58:22.688Z,19.40
2018-09-13T14:03:27.260Z,18.90
2018-09-13T14:08:31.985Z,18.50
2018-09-13T14:13:36.621Z,18.20
2018-09-13T14:18:41.331Z,17.90
2018-09-13T14:23:45.974Z,17.70
2018-09-13T14:28:50.535Z,17.70
2018-09-13T14:33:55.108Z,18.40
2018-09-13T14:38:59.623Z,19.80
2018-09-13T14:44:04.608Z,21.60
2018-09-13T14:49:09.311Z,21.90
2018-09-13T14:54:13.898Z,21.30
2018-09-13T14:59:18.583Z,20.60
2018-09-13T15:04:23.268Z,20.00
2018-09-13T15:09:27.817Z,19.70
2018-09-13T15:14:33.031Z,19.50
2018-09-13T15:19:37.562Z,19.10
2018-09-13T15:24:46.513Z,18.90
2018-09-13T15:29:50.876Z,18.90
2018-09-13T15:34:55.370Z,19.20
2018-09-13T15:40:00.876Z,19.60
2018-09-13T15:45:06.102Z,19.80
2018-09-13T15:50:10.862Z,20.20
2018-09-13T15:55:15.404Z,20.40
2018-09-13T16:00:20.269Z,20.30
2018-09-13T16:05:25.836Z,20.20
2018-09-13T16:10:31.236Z,20.30
2018-09-13T16:17:04.902Z,20.30
2018-09-13T16:22:09.779Z,20.20
2018-09-13T16:27:14.351Z,19.60
2018-09-13T16:32:21.701Z,19.20
2018-09-13T16:37:31.400Z,19.10
2018-09-13T16:42:43.071Z,19.00
2018-09-13T16:47:52.667Z,18.80
2018-09-13T16:52:57.419Z,18.60
2018-09-13T16:58:01.848Z,18.30
2018-09-13T17:03:06.605Z,18.20
2018-09-13T17:08:11.236Z,18.00
2018-09-13T17:13:15.728Z,17.90
2018-09-13T17:18:20.192Z,17.70
2018-09-13T17:23:24.698Z,17.70
2018-09-13T17:28:29.205Z,18.20
2018-09-13T17:33:33.621Z,18.20
2018-09-13T17:38:38.269Z,17.90
2018-09-13T17:43:42.827Z,17.50
2018-09-13T17:48:47.723Z,17.30
2018-09-13T17:53:52.262Z,17.00
2018-09-13T17:58:57.211Z,16.80
2018-09-13T18:04:01.747Z,16.50
2018-09-13T18:09:08.851Z,16.30
2018-09-13T18:14:14.222Z,16.20
2018-09-13T18:19:19.678Z,16.10
2018-09-13T18:24:25.046Z,16.00
2018-09-13T18:29:30.361Z,15.90
2018-09-13T18:34:36.491Z,15.80
2018-09-13T18:46:02.995Z,15.60
2018-09-13T18:51:09.671Z,15.50
2018-09-13T18:56:14.940Z,15.40
2018-09-13T19:01:20.615Z,15.30
2018-09-13T19:06:40.835Z,15.10
2018-09-13T19:11:47.051Z,15.00
2018-09-13T19:16:52.079Z,14.80
2018-09-13T19:21:59.172Z,14.50
2018-09-13T19:27:25.520Z,14.20
2018-09-13T19:40:10.894Z,13.80
2018-09-13T19:45:16.053Z,13.50
2018-09-13T19:50:21.773Z,13.30
2018-09-13T19:55:27.295Z,13.10
2018-09-13T20:00:32.495Z,13.00
2018-09-13T20:05:37.658Z,12.90
2018-09-13T20:10:43.079Z,12.70
2018-09-13T20:15:50.700Z,12.60
2018-09-13T20:20:56.398Z,12.50
2018-09-13T20:37:14.539Z,12.20
2018-09-13T20:42:22.132Z,12.20
2018-09-13T20:52:52.832Z,12.00
2018-09-13T20:57:58.403Z,12.00
2018-09-13T21:03:03.658Z,11.80
2018-09-13T21:08:09.126Z,11.70
2018-09-13T21:23:10.410Z,11.60
2018-09-13T21:28:15.634Z,11.40
2018-09-13T21:33:21.184Z,11.30
2018-09-13T21:38:27.242Z,11.30
2018-09-13T21:43:32.645Z,11.20
2018-09-13T21:48:38.319Z,11.10
2018-09-13T21:53:43.681Z,11.00
2018-09-13T21:58:50.425Z,10.90
2018-09-13T22:03:56.052Z,10.90
2018-09-13T22:09:01.611Z,10.80
2018-09-13T22:14:07.493Z,10.70
2018-09-13T22:19:13.780Z,10.70
2018-09-13T22:24:19.757Z,10.70
2018-09-13T22:29:29.340Z,10.60
2018-09-13T22:34:35.402Z,10.50
2018-09-13T22:39:43.227Z,10.40
2018-09-13T22:46:57.718Z,10.30
2018-09-13T22:52:05.420Z,10.30
2018-09-13T22:57:11.640Z,10.20
2018-09-13T23:13:13.402Z,10.00
2018-09-13T23:18:19.058Z,10.00
2018-09-13T23:23:24.734Z,9.90
2018-09-13T23:28:30.616Z,9.80
2018-09-13T23:33:37.194Z,9.70
2018-09-13T23:38:42.462Z,9.70
2018-09-13T23:43:47.926Z,9.60
2018-09-13T23:48:53.391Z,9.60
2018-09-13T23:55:02.962Z,9.60
